SLRS weather

Rio Seco Airport
Campo Ingelmeco, Santa Cruz Department, Bolivia

Public forecast

Using degrees Celsius for public forecast. Weather courtesy of forecast.io.

METAR (pilot weather report)

Report is more than 6 hours old.

Closest report is El Trompillo Airport, 23.9 nm (44.2 km) NNE. Retrieved 2019/03/21 23:00 UTC (7 hours ago):

SLET 212300Z 13012KT 9999 BKN017 OVC070 20/17 Q1014

TAF (pilot weather forecast)

Forecast is more than 6 hours old.

Closest forecast is El Trompillo Airport, 23.9 nm (44.2 km) NNE. Retrieved 2019/03/21 18:54 UTC (11 hours ago):

TAF SLET 211650Z 2118/2218 18015G28KT 9999 BKN017 BKN070 TX25/2118Z TN18/2210Z BECMG 2123/2202 18010KT BKN015 BECMG 2206/2209 SCT020